Time;durP1;ratioP1;P1;durP2;ratioP2;P2;SDS_P1;SDS_P2;PMS_P1;PMS_P2;Temp;Humidity;BMP_temperature;BMP_pressure;BME280_temperature;BME280_humidity;BME280_pressure;Samples;Min_cycle;Max_cycle;Signal;HPM_P1;HPM_P2
2022/08/07 00:00:51;;;;;;;1.57;0.80;;;18.20;79.20;;;;;;4978069;28;20029;-73
2022/08/07 00:03:16;;;;;;;1.98;0.57;;;18.20;80.00;;;;;;4993642;28;20060;-74
2022/08/07 00:05:42;;;;;;;0.70;0.60;;;18.10;83.70;;;;;;4993882;28;20031;-74
2022/08/07 00:08:08;;;;;;;1.17;0.70;;;18.20;91.00;;;;;;5010048;28;20164;-73
2022/08/07 00:10:34;;;;;;;0.70;0.60;;;18.20;91.10;;;;;;4995191;28;20037;-73
2022/08/07 00:13:02;;;;;;;0.80;0.60;;;18.10;90.00;;;;;;5009931;28;20394;-73
2022/08/07 00:15:29;;;;;;;3.03;0.98;;;18.10;95.10;;;;;;5009847;28;20037;-73
2022/08/07 00:17:55;;;;;;;0.63;0.50;;;18.00;93.30;;;;;;5010070;28;20117;-73
2022/08/07 00:20:22;;;;;;;1.57;0.80;;;18.10;95.70;;;;;;4994987;28;20084;-74
2022/08/07 00:22:48;;;;;;;;;;;17.90;97.40;;;;;;5009882;28;20034;-73
2022/08/07 00:25:13;;;;;;;0.95;0.50;;;17.90;97.40;;;;;;4993423;28;20449;-73
2022/08/07 00:27:39;;;;;;;1.63;0.63;;;17.90;96.80;;;;;;4994760;28;20502;-73
2022/08/07 00:30:05;;;;;;;0.70;0.67;;;17.90;96.50;;;;;;4993598;28;20486;-73
2022/08/07 00:32:31;;;;;;;2.45;0.70;;;17.90;96.90;;;;;;4994563;28;20035;-73
2022/08/07 00:34:57;;;;;;;1.33;0.60;;;17.90;96.60;;;;;;4994375;28;20030;-73
2022/08/07 00:37:23;;;;;;;1.87;0.83;;;17.80;97.80;;;;;;4994611;28;20105;-73
2022/08/07 00:39:49;;;;;;;0.60;0.50;;;17.80;99.00;;;;;;4994576;28;20026;-73
2022/08/07 00:42:15;;;;;;;1.37;0.63;;;17.80;99.00;;;;;;4994376;28;20042;-73
2022/08/07 00:44:41;;;;;;;1.67;0.50;;;17.70;99.10;;;;;;5009251;28;20069;-73
2022/08/07 00:47:07;;;;;;;1.33;0.70;;;17.70;99.50;;;;;;5009227;28;20062;-73
2022/08/07 00:49:33;;;;;;;0.88;0.80;;;17.70;99.10;;;;;;5008819;28;20101;-74
2022/08/07 00:51:59;;;;;;;1.03;0.70;;;17.60;99.60;;;;;;5009467;28;20114;-73
2022/08/07 00:54:25;;;;;;;2.00;0.40;;;17.60;99.80;;;;;;5008061;28;20037;-73
2022/08/07 00:56:50;;;;;;;1.90;0.60;;;17.60;99.90;;;;;;4994287;28;20026;-73
2022/08/07 00:59:19;;;;;;;1.33;0.50;;;17.60;99.90;;;;;;4944902;28;20548;-73
2022/08/07 01:01:45;;;;;;;1.25;0.55;;;17.50;99.90;;;;;;4994192;28;20033;-73
2022/08/07 01:04:11;;;;;;;1.77;0.50;;;17.50;99.90;;;;;;4992631;28;20069;-72
2022/08/07 01:06:37;;;;;;;0.30;0.30;;;17.50;99.90;;;;;;4994059;28;20031;-73
2022/08/07 01:09:03;;;;;;;2.23;0.70;;;17.50;99.90;;;;;;4993740;28;20038;-73
2022/08/07 01:11:29;;;;;;;1.30;0.45;;;17.40;99.90;;;;;;4992880;28;20398;-73
2022/08/07 01:13:55;;;;;;;6.23;0.67;;;17.40;99.90;;;;;;4992516;28;20034;-73
2022/08/07 01:16:21;;;;;;;1.13;0.60;;;17.40;99.90;;;;;;4976359;28;20034;-73
2022/08/07 01:18:46;;;;;;;1.27;0.70;;;17.30;99.90;;;;;;5008616;28;20040;-72
2022/08/07 01:21:13;;;;;;;1.23;0.50;;;17.30;99.90;;;;;;5008988;28;20142;-73
2022/08/07 01:23:41;;;;;;;0.80;0.60;;;17.30;99.90;;;;;;5008156;28;20030;-73
2022/08/07 01:26:08;;;;;;;1.27;0.60;;;;;;;;;;4992449;28;20415;-72
2022/08/07 01:28:35;;;;;;;0.70;0.50;;;;;;;;;;4976470;28;20080;-73
2022/08/07 01:31:02;;;;;;;1.10;0.55;;;;;;;;;;4993725;28;20037;-72
2022/08/07 01:33:28;;;;;;;0.52;0.50;;;;;;;;;;4992168;28;20350;-73
2022/08/07 01:35:56;;;;;;;0.50;0.50;;;17.00;89.70;;;;;;4960012;28;20041;-73
2022/08/07 01:38:21;;;;;;;1.08;0.47;;;17.10;90.70;;;;;;5017206;23;20054;-77
2022/08/07 01:40:47;;;;;;;1.03;0.50;;;16.90;90.90;;;;;;4993213;28;20509;-78
2022/08/07 01:43:13;;;;;;;0.73;0.67;;;16.80;91.30;;;;;;4993044;28;20118;-78
2022/08/07 01:45:39;;;;;;;0.87;0.70;;;16.80;92.40;;;;;;4977196;28;20368;-78
2022/08/07 01:48:05;;;;;;;0.60;0.60;;;16.80;92.50;;;;;;4993443;28;20022;-77
2022/08/07 01:50:31;;;;;;;2.57;0.67;;;16.80;92.40;;;;;;4976844;28;20585;-78
2022/08/07 01:52:57;;;;;;;1.47;0.70;;;16.80;92.40;;;;;;4991642;28;20479;-78
2022/08/07 01:55:26;;;;;;;2.05;0.50;;;16.80;92.50;;;;;;4992823;28;20080;-77
2022/08/07 01:57:52;;;;;;;3.90;0.55;;;16.80;92.70;;;;;;4976715;28;20061;-77
2022/08/07 02:00:17;;;;;;;2.27;0.70;;;16.70;92.60;;;;;;5008486;28;20069;-78
2022/08/07 02:02:52;;;;;;;1.83;0.60;;;16.70;92.80;;;;;;4975994;28;20031;-78
2022/08/07 02:05:25;;;;;;;1.50;0.60;;;16.60;92.60;;;;;;4976665;28;20030;-77
2022/08/07 02:07:52;;;;;;;0.68;0.52;;;16.60;93.00;;;;;;4976472;28;20030;-77
2022/08/07 02:10:21;;;;;;;1.48;0.60;;;16.50;92.80;;;;;;4992321;28;20030;-78
2022/08/07 02:12:47;;;;;;;3.83;0.63;;;16.50;93.40;;;;;;4975940;28;20026;-78
2022/08/07 02:15:13;;;;;;;0.80;0.50;;;16.40;93.80;;;;;;4993073;28;20053;-78
2022/08/07 02:17:39;;;;;;;0.60;0.60;;;16.40;93.90;;;;;;4975826;28;20422;-78
2022/08/07 02:20:07;;;;;;;2.65;0.60;;;16.30;94.10;;;;;;4975655;28;20113;-78
2022/08/07 02:22:37;;;;;;;0.82;0.75;;;16.20;94.40;;;;;;4975738;28;20034;-77
2022/08/07 02:25:04;;;;;;;0.70;0.50;;;16.20;94.80;;;;;;4973199;28;20121;-77
2022/08/07 02:27:30;;;;;;;3.40;0.70;;;16.10;95.10;;;;;;4972377;28;20443;-77
2022/08/07 02:29:57;;;;;;;0.50;0.47;;;16.10;95.40;;;;;;4995832;28;20065;-77
2022/08/07 02:32:23;;;;;;;1.35;0.60;;;16.00;95.80;;;;;;5005084;28;20026;-77
2022/08/07 02:34:48;;;;;;;0.60;0.60;;;16.00;96.40;;;;;;4959148;28;20085;-77
2022/08/07 02:37:14;;;;;;;1.23;0.60;;;15.90;95.90;;;;;;4992209;28;20034;-77
2022/08/07 02:39:42;;;;;;;4.13;0.67;;;15.90;96.20;;;;;;4991512;28;20034;-77
2022/08/07 02:42:08;;;;;;;0.80;0.60;;;15.90;96.50;;;;;;4975669;28;20285;-77
2022/08/07 02:44:34;;;;;;;0.93;0.60;;;15.80;97.20;;;;;;4974975;28;20030;-77
2022/08/07 02:47:00;;;;;;;1.30;0.60;;;15.80;97.60;;;;;;4975590;28;20033;-77
2022/08/07 02:49:25;;;;;;;4.80;0.85;;;15.70;97.90;;;;;;4975489;28;20022;-77
2022/08/07 02:51:51;;;;;;;3.33;0.70;;;15.70;98.50;;;;;;4975402;28;20042;-77
2022/08/07 02:54:18;;;;;;;0.60;0.53;;;15.70;98.30;;;;;;4973558;28;20036;-78
2022/08/07 02:56:43;;;;;;;0.70;0.50;;;15.70;98.50;;;;;;5007615;28;20034;-78
2022/08/07 02:59:10;;;;;;;2.60;1.47;;;15.70;98.60;;;;;;5007487;28;20504;-78
2022/08/07 03:01:39;;;;;;;4.32;0.90;;;15.60;98.90;;;;;;5007728;28;20545;-78
2022/08/07 03:04:06;;;;;;;2.15;0.60;;;15.60;99.30;;;;;;4990889;28;20045;-77
2022/08/07 03:06:31;;;;;;;;;;;15.60;99.90;;;;;;4991655;28;20125;-77
2022/08/07 03:08:57;;;;;;;0.50;0.50;;;15.60;99.90;;;;;;4990760;28;20370;-77
2022/08/07 03:11:23;;;;;;;1.37;0.77;;;15.60;99.90;;;;;;4990642;28;20105;-78
2022/08/07 03:13:49;;;;;;;2.07;0.70;;;15.60;99.90;;;;;;4990623;28;20486;-77
2022/08/07 03:16:15;;;;;;;0.85;0.70;;;15.60;99.90;;;;;;4990944;28;20034;-77
2022/08/07 03:18:41;;;;;;;1.70;0.60;;;15.50;99.90;;;;;;5007342;28;20042;-77
2022/08/07 03:21:07;;;;;;;2.75;0.80;;;15.50;99.90;;;;;;4990992;28;20026;-77
2022/08/07 03:23:33;;;;;;;4.30;0.83;;;15.60;99.90;;;;;;4990146;28;20113;-77
2022/08/07 03:25:59;;;;;;;1.98;0.80;;;15.50;99.90;;;;;;5007138;28;20031;-78
2022/08/07 03:28:26;;;;;;;3.13;0.68;;;;;;;;;;5007110;28;20047;-77
2022/08/07 03:31:17;;;;;;;1.38;0.75;;;15.60;99.90;;;;;;5007229;28;20515;-77
2022/08/07 03:33:37;;;;;;;1.88;0.70;;;15.50;99.90;;;;;;4990529;28;20038;-77
2022/08/07 03:36:03;;;;;;;0.77;0.60;;;15.50;99.90;;;;;;4990826;28;20026;-77
2022/08/07 03:38:29;;;;;;;1.08;0.77;;;15.50;99.90;;;;;;4990368;28;20125;-77
2022/08/07 03:40:55;;;;;;;1.17;0.70;;;15.50;99.90;;;;;;5007199;28;20030;-77
2022/08/07 03:43:21;;;;;;;0.93;0.80;;;15.40;99.90;;;;;;5006548;28;20030;-77
2022/08/07 03:45:47;;;;;;;3.97;0.80;;;15.40;99.90;;;;;;4990592;28;20513;-77
2022/08/07 03:48:13;;;;;;;0.87;0.70;;;15.30;99.90;;;;;;5006655;28;20054;-77
2022/08/07 03:50:39;;;;;;;2.23;0.87;;;;;;;;;;5006792;28;20105;-77
2022/08/07 03:53:06;;;;;;;0.85;0.60;;;;;;;;;;4989727;28;20406;-77
2022/08/07 03:55:35;;;;;;;1.00;0.70;;;;;;;;;;5007062;28;20402;-77
2022/08/07 03:58:03;;;;;;;0.98;0.70;;;;;;;;;;4990497;28;20038;-77
2022/08/07 04:00:29;;;;;;;1.90;0.93;;;;;;;;;;5006630;28;20026;-77
2022/08/07 04:02:55;;;;;;;1.57;0.70;;;;;;;;;;4990218;28;20038;-77
2022/08/07 04:05:21;;;;;;;0.80;0.50;;;;;;;;;;5006657;28;20781;-77
2022/08/07 04:07:47;;;;;;;0.67;0.67;;;;;;;;;;4991603;28;20109;-77
2022/08/07 04:10:14;;;;;;;1.55;0.80;;;;;;;;;;4990213;28;20129;-77
2022/08/07 04:12:40;;;;;;;2.35;1.52;;;;;;;;;;5006609;28;20104;-77
2022/08/07 04:15:07;;;;;;;1.67;0.73;;;;;;;;;;5006483;28;20036;-77
2022/08/07 04:17:33;;;;;;;0.75;0.70;;;;;;;;;;4994440;28;20117;-77
2022/08/07 04:19:59;;;;;;;0.80;0.68;;;;;;;;;;4990475;28;20138;-77
2022/08/07 04:22:25;;;;;;;1.45;0.85;;;;;;;;;;4990428;28;20133;-77
2022/08/07 04:24:51;;;;;;;2.90;0.55;;;15.50;99.90;;;;;;4976859;28;20038;-77
2022/08/07 04:27:17;;;;;;;1.77;0.90;;;15.40;99.90;;;;;;4977450;28;20048;-77
2022/08/07 04:29:43;;;;;;;1.17;0.73;;;15.40;99.90;;;;;;4994994;28;20106;-78
2022/08/07 04:32:09;;;;;;;1.83;1.20;;;15.30;99.90;;;;;;4977531;28;20058;-77
2022/08/07 04:34:35;;;;;;;2.57;1.03;;;15.30;99.90;;;;;;4993450;28;20034;-78
2022/08/07 04:37:01;;;;;;;2.00;0.88;;;15.30;99.90;;;;;;4993649;28;20057;-77
2022/08/07 04:39:28;;;;;;;5.00;0.80;;;15.20;99.90;;;;;;4993426;28;20042;-77
2022/08/07 04:41:53;;;;;;;;;;;15.30;99.90;;;;;;4995419;28;20027;-76
2022/08/07 04:44:19;;;;;;;1.27;0.70;;;15.30;99.90;;;;;;5025874;28;19925;-77
2022/08/07 04:47:02;;;;;;;1.53;0.80;;;15.30;99.90;;;;;;4993690;28;20386;-77
2022/08/07 04:49:54;;;;;;;1.15;0.70;;;15.30;99.90;;;;;;4993886;28;20065;-77
2022/08/07 04:52:34;;;;;;;2.88;1.00;;;15.30;99.90;;;;;;5009997;28;20027;-76
2022/08/07 04:55:22;;;;;;;1.00;0.80;;;15.30;99.90;;;;;;4993654;28;20474;-77
2022/08/07 04:58:15;;;;;;;1.02;0.80;;;15.40;99.90;;;;;;4994794;28;20398;-77
2022/08/07 05:00:55;;;;;;;0.95;0.60;;;15.40;99.90;;;;;;5010656;28;20093;-76
2022/08/07 05:03:30;;;;;;;1.25;1.08;;;15.40;99.90;;;;;;4993668;28;20038;-77
2022/08/07 05:06:06;;;;;;;1.33;0.90;;;15.40;99.90;;;;;;4993443;28;20030;-77
2022/08/07 05:08:43;;;;;;;2.63;0.85;;;14.90;99.90;;;;;;4994076;28;20030;-77
2022/08/07 05:11:28;;;;;;;2.25;1.25;;;15.90;99.90;;;;;;4993776;28;20101;-77
2022/08/07 05:14:05;;;;;;;1.55;0.77;;;15.50;99.90;;;;;;5010206;28;20031;-77
2022/08/07 05:16:31;;;;;;;2.70;1.00;;;15.60;99.90;;;;;;4994375;28;20475;-77
2022/08/07 05:19:02;;;;;;;0.60;0.60;;;15.60;99.90;;;;;;4993424;28;20026;-77
2022/08/07 05:21:29;;;;;;;1.77;0.60;;;15.70;99.90;;;;;;4993516;28;20383;-77
2022/08/07 05:23:58;;;;;;;1.73;1.50;;;15.70;99.90;;;;;;4992398;28;20030;-77
2022/08/07 05:26:26;;;;;;;0.95;0.88;;;15.80;99.90;;;;;;5009447;28;20045;-77
2022/08/07 05:28:53;;;;;;;1.10;0.75;;;15.90;99.90;;;;;;5009065;28;20107;-77
2022/08/07 05:31:20;;;;;;;1.00;0.88;;;15.90;99.90;;;;;;4992977;28;20054;-78
2022/08/07 05:33:46;;;;;;;2.08;0.88;;;16.00;99.90;;;;;;5008529;28;20148;-78
2022/08/07 05:36:12;;;;;;;1.63;0.68;;;;;;;;;;5008902;28;20092;-78
2022/08/07 05:38:39;;;;;;;0.80;0.80;;;;;;;;;;4991984;28;20065;-78
2022/08/07 05:41:06;;;;;;;;;;;;;;;;;;4992824;28;20269;-78
2022/08/07 05:43:32;;;;;;;2.63;0.85;;;;;;;;;;4992284;28;19943;-78
2022/08/07 05:46:00;;;;;;;2.63;0.80;;;;;;;;;;4992354;28;20042;-78
2022/08/07 05:48:27;;;;;;;1.05;1.00;;;;;;;;;;5008424;28;20080;-78
2022/08/07 05:50:54;;;;;;;2.42;0.77;;;;;;;;;;5008812;28;20398;-78
2022/08/07 05:53:20;;;;;;;1.75;0.75;;;;;;;;;;5008381;28;20030;-78
2022/08/07 05:55:46;;;;;;;4.03;0.80;;;;;;;;;;5008103;28;20026;-78
2022/08/07 05:58:12;;;;;;;5.40;1.30;;;;;;;;;;4992463;28;20323;-77
2022/08/07 06:00:38;;;;;;;1.63;0.93;;;;;;;;;;5008794;28;20030;-78
2022/08/07 06:03:05;;;;;;;1.92;0.60;;;;;;;;;;5012130;28;20042;-78
2022/08/07 06:05:32;;;;;;;1.42;0.85;;;;;;;;;;5041002;28;20208;-78
2022/08/07 06:07:59;;;;;;;2.20;0.77;;;;;;;;;;5014915;28;20050;-78
2022/08/07 06:10:27;;;;;;;1.73;0.73;;;;;;;;;;5009231;28;20030;-78
2022/08/07 06:12:53;;;;;;;0.95;0.57;;;;;;;;;;5008189;28;20068;-78
2022/08/07 06:15:19;;;;;;;0.60;0.60;;;;;;;;;;4992091;28;20060;-78
2022/08/07 06:17:46;;;;;;;1.95;0.75;;;;;;;;;;5008405;28;20042;-78
2022/08/07 06:20:12;;;;;;;0.80;0.77;;;;;;;;;;4992544;28;20490;-78
2022/08/07 06:22:39;;;;;;;1.08;0.70;;;;;;;;;;4991315;28;20042;-79
2022/08/07 06:25:06;;;;;;;1.25;0.70;;;;;;;;;;4990771;28;20479;-78
2022/08/07 06:27:32;;;;;;;2.85;0.93;;;;;;;;;;4991609;28;20064;-78
2022/08/07 06:29:59;;;;;;;1.23;0.65;;;;;;;;;;4991669;28;20117;-79
2022/08/07 06:32:25;;;;;;;3.28;0.60;;;;;;;;;;5008036;28;20553;-78
2022/08/07 06:34:51;;;;;;;2.42;1.10;;;;;;;;;;4991118;28;20038;-78
2022/08/07 06:37:17;;;;;;;1.13;0.70;;;;;;;;;;4991201;28;20049;-78
2022/08/07 06:39:43;;;;;;;1.38;0.90;;;;;;;;;;5021054;28;20108;-78
2022/08/07 06:42:21;;;;;;;0.75;0.75;;;;;;;;;;5024177;28;20422;-77
2022/08/07 06:44:47;;;;;;;2.53;0.70;;;;;;;;;;4956239;28;20062;-78
2022/08/07 06:47:13;;;;;;;2.60;0.90;;;;;;;;;;4938665;28;20513;-78
2022/08/07 06:49:40;;;;;;;0.63;0.60;;;;;;;;;;4969214;28;20113;-78
2022/08/07 06:52:07;;;;;;;3.50;0.70;;;;;;;;;;4991330;28;20073;-77
2022/08/07 06:54:33;;;;;;;1.38;0.60;;;;;;;;;;4973937;28;20035;-77
2022/08/07 06:56:59;;;;;;;0.80;0.65;;;;;;;;;;5006091;28;20705;-77
2022/08/07 06:59:34;;;;;;;1.98;1.15;;;;;;;;;;4992656;28;20383;-77
2022/08/07 07:02:00;;;;;;;2.20;1.00;;;;;;;;;;4992178;28;20117;-79
2022/08/07 07:04:26;;;;;;;1.20;0.80;;;;;;;;;;4975084;28;20738;-79
2022/08/07 07:06:54;;;;;;;1.58;0.85;;;;;;;;;;4992203;28;20133;-79
2022/08/07 07:09:24;;;;;;;0.80;0.70;;;;;;;;;;4992544;28;20030;-79
2022/08/07 07:12:03;;;;;;;2.75;1.15;;;;;;;;;;4975606;28;20084;-78
2022/08/07 07:14:35;;;;;;;1.67;0.98;;;;;;;;;;4991876;28;20449;-77
2022/08/07 07:17:03;;;;;;;2.65;0.70;;;;;;;;;;4975135;28;20069;-77
2022/08/07 07:19:35;;;;;;;0.75;0.70;;;;;;;;;;4974620;28;20126;-77
2022/08/07 07:22:01;;;;;;;1.42;1.08;;;;;;;;;;4974794;28;20038;-77
2022/08/07 07:24:27;;;;;;;0.70;0.70;;;;;;;;;;4973796;28;20038;-77
2022/08/07 07:26:53;;;;;;;0.75;0.75;;;19.80;82.70;;;;;;5006673;28;20491;-77
2022/08/07 07:29:23;;;;;;;2.27;0.80;;;20.10;84.00;;;;;;4990310;28;20050;-77
2022/08/07 07:31:50;;;;;;;3.97;0.95;;;20.10;81.10;;;;;;5006641;28;20034;-77
2022/08/07 07:34:26;;;;;;;1.77;1.15;;;20.10;82.30;;;;;;4991064;28;20091;-78
2022/08/07 07:36:51;;;;;;;4.55;2.50;;;20.20;77.70;;;;;;4989699;28;20390;-77
2022/08/07 07:39:20;;;;;;;2.47;1.33;;;20.30;79.80;;;;;;4988417;28;20027;-77
2022/08/07 07:41:48;;;;;;;3.45;1.45;;;20.30;82.00;;;;;;4990326;28;20033;-77
2022/08/07 07:44:15;;;;;;;1.08;0.95;;;20.40;83.00;;;;;;4973943;28;20031;-76
2022/08/07 07:46:40;;;;;;;3.47;0.88;;;20.60;80.40;;;;;;4990226;28;20033;-77
2022/08/07 07:49:07;;;;;;;1.53;1.10;;;20.70;79.50;;;;;;4974344;28;20066;-77
2022/08/07 07:51:33;;;;;;;1.75;1.10;;;20.80;78.90;;;;;;4956392;28;20018;-76
2022/08/07 07:53:59;;;;;;;2.53;1.43;;;20.90;79.20;;;;;;4989026;28;20026;-80
2022/08/07 07:56:25;;;;;;;1.97;1.00;;;20.90;80.80;;;;;;4990182;28;20030;-78
2022/08/07 07:58:52;;;;;;;2.13;1.17;;;21.00;78.00;;;;;;4977628;28;20042;-78
2022/08/07 08:01:17;;;;;;;;;;;21.20;76.20;;;;;;5011027;28;20084;-77
2022/08/07 08:03:43;;;;;;;2.72;1.20;;;21.30;74.10;;;;;;4993516;28;19913;-77
2022/08/07 08:06:09;;;;;;;1.70;1.00;;;21.40;73.40;;;;;;5009553;28;20052;-75
2022/08/07 08:08:35;;;;;;;1.60;1.20;;;21.40;71.20;;;;;;5025683;28;20030;-74
2022/08/07 08:11:05;;;;;;;3.00;1.20;;;21.60;71.50;;;;;;4980027;28;20821;-74
2022/08/07 08:13:31;;;;;;;1.10;1.00;;;21.70;69.60;;;;;;5001760;28;20030;-75
2022/08/07 08:15:57;;;;;;;1.10;0.93;;;21.80;70.80;;;;;;5010052;28;20030;-75
2022/08/07 08:18:23;;;;;;;;;;;21.80;67.90;;;;;;5010474;28;20027;-75
2022/08/07 08:20:49;;;;;;;1.50;1.10;;;21.90;65.70;;;;;;5009903;28;19909;-75
2022/08/07 08:28:44;;;;;;;1.20;0.82;;;22.10;66.70;;;;;;4993659;28;20053;-76
2022/08/07 08:31:22;;;;;;;3.97;1.23;;;22.10;68.10;;;;;;5009872;28;20475;-77
2022/08/07 08:33:47;;;;;;;;;;;22.10;65.70;;;;;;4991625;28;20293;-79
2022/08/07 08:36:15;;;;;;;6.28;3.30;;;22.10;65.40;;;;;;4994165;28;19913;-81
2022/08/07 08:38:42;;;;;;;2.25;1.55;;;22.10;65.60;;;;;;4994411;28;20100;-81
2022/08/07 08:41:39;;;;;;;1.60;1.50;;;22.10;65.80;;;;;;4993086;28;20034;-79
2022/08/07 08:44:45;;;;;;;1.48;0.90;;;22.10;66.30;;;;;;5014098;28;20030;-78
2022/08/07 08:47:35;;;;;;;1.55;1.00;;;22.10;65.40;;;;;;4975561;28;20533;-78
2022/08/07 08:50:23;;;;;;;1.45;1.00;;;22.10;64.00;;;;;;4987554;28;20034;-78
2022/08/07 08:53:29;;;;;;;1.00;0.77;;;22.00;63.80;;;;;;4988370;28;20033;-78
2022/08/07 08:56:08;;;;;;;1.17;0.90;;;22.00;63.50;;;;;;5022989;28;20042;-78
2022/08/07 08:59:19;;;;;;;1.20;0.80;;;22.00;64.10;;;;;;5003622;28;20038;-78
2022/08/07 09:02:09;;;;;;;1.85;0.80;;;22.00;63.90;;;;;;4972321;28;20133;-77
2022/08/07 09:05:02;;;;;;;3.08;1.00;;;22.10;64.40;;;;;;4993048;28;20038;-79
2022/08/07 09:08:06;;;;;;;0.75;0.75;;;22.10;64.20;;;;;;4989297;28;20027;-78
2022/08/07 09:10:46;;;;;;;3.38;0.65;;;22.20;61.60;;;;;;4988234;28;20028;-78
2022/08/07 09:13:31;;;;;;;1.73;0.80;;;22.30;60.50;;;;;;4993792;28;20034;-74
2022/08/07 09:16:07;;;;;;;2.38;0.77;;;22.40;62.80;;;;;;5018662;28;20101;-73
2022/08/07 09:19:13;;;;;;;2.35;0.75;;;22.50;60.80;;;;;;4976909;28;20041;-75
2022/08/07 09:21:48;;;;;;;1.70;0.90;;;22.50;59.80;;;;;;4987998;28;20034;-73
2022/08/07 09:24:55;;;;;;;1.38;0.90;;;22.50;60.10;;;;;;5008488;28;20038;-74
2022/08/07 09:27:26;;;;;;;1.60;0.95;;;22.60;60.50;;;;;;4970596;28;20085;-68
2022/08/07 09:30:04;;;;;;;1.58;0.60;;;22.60;61.80;;;;;;4993831;28;20102;-70
2022/08/07 09:32:50;;;;;;;1.55;0.85;;;22.70;60.60;;;;;;5008503;28;20510;-75
2022/08/07 09:35:27;;;;;;;1.52;0.90;;;22.80;61.10;;;;;;4973344;28;20035;-76
2022/08/07 09:38:06;;;;;;;1.00;0.82;;;22.90;58.70;;;;;;5005017;28;20041;-76
2022/08/07 09:40:59;;;;;;;1.65;0.85;;;22.90;58.60;;;;;;4974593;28;20114;-77
2022/08/07 09:44:05;;;;;;;0.70;0.65;;;22.90;58.80;;;;;;4987014;28;20521;-74
2022/08/07 09:46:49;;;;;;;1.05;0.88;;;23.00;58.10;;;;;;4976402;28;20858;-74
2022/08/07 09:50:00;;;;;;;3.53;0.90;;;22.90;58.70;;;;;;4991776;28;20069;-74
2022/08/07 09:52:54;;;;;;;0.60;0.60;;;22.90;59.40;;;;;;4993996;28;20122;-74
2022/08/07 09:55:25;;;;;;;1.15;0.80;;;23.00;59.40;;;;;;4981595;28;20563;-73
2022/08/07 09:58:18;;;;;;;2.33;0.70;;;23.10;58.50;;;;;;4998076;28;20038;-74
2022/08/07 10:00:59;;;;;;;2.03;0.60;;;23.20;56.30;;;;;;5013546;28;20029;-73
2022/08/07 10:04:17;;;;;;;1.40;0.80;;;23.20;57.00;;;;;;5014954;28;20022;-74
2022/08/07 10:07:27;;;;;;;2.25;0.98;;;23.20;57.60;;;;;;4977407;28;20070;-74
2022/08/07 10:10:23;;;;;;;2.42;0.73;;;23.20;59.50;;;;;;4967510;28;20039;-75
2022/08/07 10:13:10;;;;;;;5.32;0.90;;;23.30;59.70;;;;;;5008419;28;20026;-75
2022/08/07 10:15:59;;;;;;;1.63;1.17;;;23.40;57.30;;;;;;5023422;28;20089;-74
2022/08/07 10:19:04;;;;;;;1.30;0.80;;;23.50;57.20;;;;;;5003312;28;20038;-74
2022/08/07 10:21:46;;;;;;;0.95;0.70;;;23.60;57.90;;;;;;4985853;28;20113;-75
2022/08/07 10:24:37;;;;;;;1.73;1.00;;;23.70;58.30;;;;;;4991588;28;20394;-73
2022/08/07 10:27:23;;;;;;;2.22;0.82;;;23.70;58.20;;;;;;4988167;28;20107;-72
2022/08/07 10:30:15;;;;;;;2.37;1.20;;;23.80;56.90;;;;;;5023173;28;20072;-73
2022/08/07 10:33:35;;;;;;;4.07;1.10;;;23.90;56.40;;;;;;4990827;28;20034;-73
2022/08/07 10:36:16;;;;;;;2.95;1.50;;;24.10;56.20;;;;;;4990184;28;20065;-73
2022/08/07 10:39:15;;;;;;;5.38;1.88;;;24.10;54.50;;;;;;5002098;28;20046;-73
2022/08/07 10:41:46;;;;;;;4.15;1.52;;;24.20;55.80;;;;;;4992850;28;20034;-73
2022/08/07 10:44:19;;;;;;;2.58;0.90;;;24.20;54.10;;;;;;4990768;28;20034;-73
2022/08/07 10:47:14;;;;;;;2.08;1.10;;;24.30;55.60;;;;;;5007365;28;20022;-73
2022/08/07 10:49:47;;;;;;;2.83;1.30;;;24.50;53.60;;;;;;4971375;28;20462;-73
2022/08/07 10:52:54;;;;;;;4.60;2.08;;;24.50;55.70;;;;;;4974539;28;20558;-72
2022/08/07 10:55:32;;;;;;;4.43;1.33;;;24.50;53.60;;;;;;4975120;28;20506;-72
2022/08/07 10:58:14;;;;;;;3.08;1.10;;;24.60;53.80;;;;;;5006885;28;20061;-72
2022/08/07 11:00:52;;;;;;;3.30;1.90;;;24.60;51.10;;;;;;5012756;28;20034;-72
2022/08/07 11:04:28;;;;;;;0.80;0.80;;;24.70;51.30;;;;;;4998433;28;20042;-72
2022/08/07 11:07:31;;;;;;;4.50;1.70;;;24.80;50.40;;;;;;4946929;28;20441;-72
2022/08/07 11:09:57;;;;;;;4.40;1.00;;;24.90;52.20;;;;;;4977077;28;20034;-73
2022/08/07 11:12:33;;;;;;;1.40;1.20;;;25.00;52.20;;;;;;5005318;28;20399;-73
2022/08/07 11:15:10;;;;;;;2.83;1.05;;;25.10;47.90;;;;;;5022215;28;20026;-74
2022/08/07 11:17:59;;;;;;;1.65;0.70;;;25.10;47.90;;;;;;5020343;28;20030;-73
2022/08/07 11:20:47;;;;;;;2.47;0.95;;;25.20;49.30;;;;;;4971241;28;20122;-74
2022/08/07 11:23:52;;;;;;;2.13;0.73;;;25.40;49.30;;;;;;4972011;28;20070;-73
2022/08/07 11:26:48;;;;;;;2.55;0.70;;;25.60;47.00;;;;;;5001411;28;20050;-74
2022/08/07 11:29:35;;;;;;;2.08;0.73;;;25.80;47.70;;;;;;4986527;28;20046;-74
2022/08/07 11:32:20;;;;;;;3.15;0.75;;;25.90;49.40;;;;;;4976772;28;20125;-74
2022/08/07 11:34:54;;;;;;;1.90;0.90;;;26.10;49.50;;;;;;4980181;28;20026;-74
2022/08/07 11:38:17;;;;;;;2.13;1.30;;;26.20;47.40;;;;;;4977010;28;20698;-74
2022/08/07 11:41:05;;;;;;;1.10;0.60;;;26.30;46.60;;;;;;4991076;28;20050;-75
2022/08/07 11:43:35;;;;;;;1.88;0.80;;;26.40;46.40;;;;;;4991595;28;20053;-75
2022/08/07 11:46:31;;;;;;;0.73;0.60;;;26.40;46.10;;;;;;4994530;28;20548;-75
2022/08/07 11:49:51;;;;;;;0.98;0.73;;;26.40;45.90;;;;;;4994906;28;20054;-75
2022/08/07 11:52:41;;;;;;;1.50;0.60;;;26.50;45.00;;;;;;4995623;28;20037;-75
2022/08/07 11:55:59;;;;;;;1.17;0.70;;;26.50;44.70;;;;;;4974498;28;20022;-74
2022/08/07 11:58:43;;;;;;;1.85;0.75;;;26.60;46.40;;;;;;4998578;28;20394;-81
2022/08/07 12:01:30;;;;;;;0.63;0.63;;;26.70;48.00;;;;;;5028152;28;20023;-81
2022/08/07 12:04:41;;;;;;;1.17;0.70;;;26.90;50.50;;;;;;4986840;28;20460;-80
2022/08/07 12:07:31;;;;;;;1.30;0.90;;;27.20;49.60;;;;;;4988245;28;20039;-78
2022/08/07 12:10:14;;;;;;;1.20;0.77;;;27.50;48.50;;;;;;4994417;28;20657;-77
2022/08/07 12:12:54;;;;;;;0.68;0.68;;;27.70;48.10;;;;;;4993484;28;20502;-78
2022/08/07 12:15:23;;;;;;;2.03;0.60;;;27.90;46.70;;;;;;4993065;28;20045;-77
2022/08/07 12:18:12;;;;;;;3.22;0.85;;;28.00;45.50;;;;;;4979618;28;20049;-82
2022/08/07 12:21:13;;;;;;;0.95;0.80;;;28.00;44.10;;;;;;5002845;28;20196;-81
2022/08/07 12:23:50;;;;;;;1.23;0.88;;;27.90;44.50;;;;;;5002834;28;20483;-81
2022/08/07 12:26:57;;;;;;;1.35;0.63;;;28.00;46.30;;;;;;4989536;28;20065;-82
2022/08/07 12:29:55;;;;;;;1.90;0.80;;;28.20;47.50;;;;;;4983017;28;20023;-79
2022/08/07 12:32:27;;;;;;;2.40;0.82;;;28.60;45.60;;;;;;4954344;28;20035;-71
2022/08/07 12:34:53;;;;;;;3.67;1.05;;;28.50;44.20;;;;;;5004845;28;20030;-72
2022/08/07 12:37:18;;;;;;;4.03;1.42;;;28.50;45.20;;;;;;4989435;28;20459;-71
2022/08/07 12:39:47;;;;;;;6.20;1.90;;;28.70;48.10;;;;;;4974204;28;20427;-73
2022/08/07 12:42:15;;;;;;;2.47;1.17;;;29.00;50.40;;;;;;4957522;28;20039;-71
2022/08/07 12:44:43;;;;;;;3.50;1.17;;;29.20;45.30;;;;;;4988529;28;20034;-74
2022/08/07 12:47:17;;;;;;;1.45;0.95;;;29.40;47.30;;;;;;4989326;28;20029;-72
2022/08/07 12:49:53;;;;;;;2.08;1.10;;;29.40;43.60;;;;;;4988832;28;20031;-73
2022/08/07 12:52:47;;;;;;;1.55;0.95;;;29.60;46.80;;;;;;5004661;28;20031;-71
2022/08/07 12:55:36;;;;;;;1.48;0.70;;;29.80;45.50;;;;;;4991252;28;20026;-74
2022/08/07 12:58:02;;;;;;;1.40;0.70;;;30.00;43.20;;;;;;4973212;28;20062;-74
2022/08/07 13:01:07;;;;;;;2.53;1.50;;;30.00;42.20;;;;;;5006180;28;20055;-74
2022/08/07 13:04:11;;;;;;;1.42;0.90;;;30.20;47.50;;;;;;5000712;28;20399;-73
2022/08/07 13:07:07;;;;;;;2.97;1.17;;;30.40;44.60;;;;;;4989392;28;20086;-76
2022/08/07 13:10:24;;;;;;;2.78;1.30;;;30.70;40.40;;;;;;5010386;28;20509;-79
2022/08/07 13:13:19;;;;;;;2.10;0.93;;;30.60;44.30;;;;;;5016951;28;20026;-78
2022/08/07 13:16:12;;;;;;;1.15;0.70;;;30.90;41.90;;;;;;5004667;28;20062;-78
2022/08/07 13:19:33;;;;;;;4.85;1.50;;;31.10;41.60;;;;;;4992877;28;20100;-79
2022/08/07 13:22:03;;;;;;;2.38;1.10;;;31.70;45.70;;;;;;4992108;28;20459;-79
2022/08/07 13:24:49;;;;;;;2.17;1.20;;;32.10;41.20;;;;;;5007328;28;20491;-79
2022/08/07 13:27:30;;;;;;;4.20;1.20;;;32.50;42.40;;;;;;5003306;28;20395;-79
2022/08/07 13:30:02;;;;;;;2.45;1.33;;;32.80;42.90;;;;;;5002593;28;20101;-79
2022/08/07 13:33:11;;;;;;;1.98;1.00;;;33.20;41.60;;;;;;5024549;28;20054;-78
2022/08/07 13:35:41;;;;;;;1.88;1.20;;;33.80;41.70;;;;;;4992261;28;20054;-78
2022/08/07 13:38:15;;;;;;;2.45;0.70;;;34.20;41.10;;;;;;4975813;28;20038;-78
2022/08/07 13:41:13;;;;;;;2.22;1.10;;;34.40;37.60;;;;;;4992169;28;20482;-79
2022/08/07 13:43:44;;;;;;;1.00;0.80;;;34.80;40.90;;;;;;4991783;28;20494;-79
2022/08/07 13:46:12;;;;;;;2.08;1.15;;;35.00;36.80;;;;;;4976455;28;20034;-77
2022/08/07 13:48:38;;;;;;;0.93;0.80;;;34.90;38.70;;;;;;4992141;28;20054;-78
2022/08/07 13:51:04;;;;;;;;;;;34.90;36.20;;;;;;4992540;28;20064;-79
2022/08/07 13:53:34;;;;;;;1.73;0.60;;;34.60;36.10;;;;;;5024604;28;19909;-78
2022/08/07 13:56:00;;;;;;;0.70;0.70;;;34.50;36.90;;;;;;4985776;28;20117;-79